createdAt,value
2023-03-22T00:02:46.813Z,33.70
2023-03-22T00:06:25.719Z,35.70
2023-03-22T00:10:02.054Z,28.70
2023-03-22T00:13:42.531Z,33.00
2023-03-22T00:17:17.761Z,31.90
2023-03-22T00:20:59.743Z,33.60
2023-03-22T00:24:33.110Z,40.10
2023-03-22T00:28:11.249Z,29.00
2023-03-22T00:31:49.362Z,36.00
2023-03-22T00:35:26.042Z,33.70
2023-03-22T00:39:03.872Z,36.70
2023-03-22T00:42:42.095Z,32.60
2023-03-22T00:46:21.306Z,35.60
2023-03-22T00:49:57.388Z,35.00
2023-03-22T00:53:35.414Z,40.40
2023-03-22T00:57:15.079Z,39.90
2023-03-22T01:00:49.420Z,41.50
2023-03-22T01:04:27.279Z,42.40
2023-03-22T01:08:08.734Z,43.50
2023-03-22T01:11:43.927Z,34.50
2023-03-22T01:18:57.949Z,35.50
2023-03-22T01:22:35.853Z,33.60
2023-03-22T01:26:13.047Z,36.40
2023-03-22T01:29:51.042Z,34.60
2023-03-22T01:33:28.538Z,33.50
2023-03-22T01:37:06.331Z,35.10
2023-03-22T01:40:44.583Z,35.30
2023-03-22T01:44:23.312Z,27.50
2023-03-22T01:48:03.138Z,28.40
2023-03-22T01:51:36.931Z,29.90
2023-03-22T01:55:14.632Z,34.60
2023-03-22T01:58:54.653Z,30.20
2023-03-22T02:02:31.145Z,33.00
2023-03-22T02:06:08.286Z,28.90
2023-03-22T02:09:46.793Z,32.70
2023-03-22T02:13:39.112Z,35.80
2023-03-22T02:17:12.950Z,30.70
2023-03-22T02:24:43.942Z,29.20
2023-03-22T02:28:31.162Z,31.60
2023-03-22T02:31:48.911Z,33.20
2023-03-22T02:35:31.510Z,35.20
2023-03-22T02:39:05.388Z,29.80
2023-03-22T02:42:30.843Z,33.10
2023-03-22T02:46:23.634Z,30.50
2023-03-22T02:50:14.652Z,31.70
2023-03-22T02:53:20.973Z,33.40
2023-03-22T02:57:23.078Z,31.60
2023-03-22T03:00:36.794Z,34.50
2023-03-22T03:04:16.918Z,30.00
2023-03-22T03:07:57.631Z,33.40
2023-03-22T03:11:26.037Z,28.20
2023-03-22T03:15:13.988Z,29.40
2023-03-22T03:18:54.185Z,33.80
2023-03-22T03:22:56.965Z,26.80
2023-03-22T03:26:03.136Z,33.70
2023-03-22T03:29:41.511Z,37.40
2023-03-22T03:33:17.781Z,31.70
2023-03-22T03:36:58.740Z,32.30
2023-03-22T03:40:54.135Z,36.50
2023-03-22T03:44:07.341Z,32.70
2023-03-22T03:47:46.956Z,38.90
2023-03-22T03:51:21.376Z,34.80
2023-03-22T03:54:58.857Z,35.30
2023-03-22T03:58:37.368Z,31.50
2023-03-22T04:02:14.156Z,32.10
2023-03-22T04:05:51.962Z,36.00
2023-03-22T04:09:35.446Z,38.90
2023-03-22T04:13:07.473Z,40.30
2023-03-22T04:16:47.406Z,38.20
2023-03-22T04:20:22.785Z,32.50
2023-03-22T04:24:00.630Z,33.40
2023-03-22T04:27:42.347Z,35.80
2023-03-22T04:31:16.039Z,34.10
2023-03-22T04:34:53.556Z,31.10
2023-03-22T04:38:31.026Z,31.60
2023-03-22T04:42:08.881Z,31.10
2023-03-22T04:45:46.385Z,31.70
2023-03-22T04:49:24.180Z,31.00
2023-03-22T04:53:26.605Z,31.30
2023-03-22T04:56:39.605Z,28.30
2023-03-22T05:00:18.672Z,34.80
2023-03-22T05:03:55.073Z,34.80
2023-03-22T05:07:32.553Z,34.20
2023-03-22T05:11:13.910Z,34.40
2023-03-22T05:14:47.517Z,34.50
2023-03-22T05:18:26.468Z,33.90
2023-03-22T05:22:03.044Z,34.60
2023-03-22T05:25:45.353Z,38.00
2023-03-22T05:29:18.315Z,36.70
2023-03-22T05:33:00.644Z,31.80
2023-03-22T05:36:36.589Z,32.90
2023-03-22T05:40:12.717Z,34.10
2023-03-22T05:43:51.504Z,37.50
2023-03-22T05:47:26.878Z,34.20
2023-03-22T05:51:09.411Z,36.60
2023-03-22T05:54:42.182Z,36.70
2023-03-22T05:58:20.205Z,38.00
2023-03-22T06:01:57.330Z,37.20
2023-03-22T06:05:54.712Z,37.10
2023-03-22T06:09:17.535Z,34.80
2023-03-22T06:12:50.795Z,36.90
2023-03-22T06:16:28.410Z,37.50
2023-03-22T06:20:11.934Z,35.80
2023-03-22T06:23:44.158Z,35.10
2023-03-22T06:27:22.206Z,38.10
2023-03-22T06:30:58.706Z,36.30
2023-03-22T06:34:36.978Z,38.70
2023-03-22T06:38:15.133Z,39.40
2023-03-22T06:41:52.107Z,41.30
2023-03-22T06:45:33.513Z,38.60
2023-03-22T06:49:08.107Z,37.20
2023-03-22T06:52:44.931Z,39.70
2023-03-22T06:56:22.830Z,35.30
2023-03-22T07:00:00.374Z,41.80
2023-03-22T07:03:38.170Z,37.00
2023-03-22T07:07:16.036Z,34.50
2023-03-22T07:10:53.376Z,35.60
2023-03-22T07:14:31.695Z,38.70
2023-03-22T07:18:08.787Z,38.40
2023-03-22T07:21:46.420Z,36.40
2023-03-22T07:25:24.399Z,35.10
2023-03-22T07:29:02.151Z,32.00
2023-03-22T07:32:42.241Z,31.90
2023-03-22T07:36:17.237Z,32.60
2023-03-22T07:39:54.672Z,27.80
2023-03-22T07:43:37.134Z,33.90
2023-03-22T07:47:10.321Z,31.30
2023-03-22T07:50:48.270Z,34.30
2023-03-22T07:54:33.288Z,31.30
2023-03-22T07:58:04.011Z,33.40
2023-03-22T08:01:40.934Z,33.10
2023-03-22T08:05:18.978Z,30.90
2023-03-22T08:08:56.620Z,34.40
2023-03-22T08:12:35.577Z,34.90
2023-03-22T08:16:11.684Z,34.00
2023-03-22T08:19:50.257Z,35.90
2023-03-22T08:23:40.530Z,36.10
2023-03-22T08:27:08.133Z,34.10
2023-03-22T08:30:47.774Z,36.10
2023-03-22T08:34:23.413Z,33.20
2023-03-22T08:38:01.480Z,34.60
2023-03-22T08:41:39.635Z,33.60
2023-03-22T08:45:17.294Z,39.10
2023-03-22T08:48:54.942Z,34.70
2023-03-22T08:52:32.215Z,35.40
2023-03-22T08:56:09.751Z,35.90
2023-03-22T08:59:47.050Z,35.20
2023-03-22T09:03:26.613Z,33.90
2023-03-22T09:07:02.984Z,39.20
2023-03-22T09:10:40.567Z,38.60
2023-03-22T09:14:17.644Z,33.30
2023-03-22T09:17:56.604Z,34.60
2023-03-22T09:21:33.466Z,36.50
2023-03-22T09:25:13.018Z,35.70
2023-03-22T09:28:48.888Z,34.40
2023-03-22T09:32:27.017Z,39.80
2023-03-22T09:36:06.009Z,34.30
2023-03-22T09:39:42.040Z,37.00
2023-03-22T09:43:20.943Z,33.80
2023-03-22T09:47:00.131Z,37.80
2023-03-22T09:50:47.830Z,35.20
2023-03-22T09:54:31.472Z,33.40
2023-03-22T09:58:07.844Z,33.20
2023-03-22T10:01:35.500Z,29.90
2023-03-22T10:05:28.557Z,30.60
2023-03-22T10:09:11.170Z,34.40
2023-03-22T10:12:53.538Z,33.60
2023-03-22T10:16:02.405Z,32.10
2023-03-22T10:19:58.758Z,34.80
2023-03-22T10:23:18.873Z,29.70
2023-03-22T10:34:38.390Z,26.70
2023-03-22T10:38:22.876Z,21.50
2023-03-22T10:41:57.999Z,24.90
2023-03-22T10:45:35.278Z,24.00
2023-03-22T10:49:18.830Z,22.00
2023-03-22T10:53:04.776Z,19.50
2023-03-22T10:56:25.242Z,18.70
2023-03-22T11:00:10.048Z,18.20
2023-03-22T11:03:43.037Z,18.30
2023-03-22T11:07:47.584Z,18.50
2023-03-22T11:10:59.389Z,18.70
2023-03-22T11:14:36.976Z,13.30
2023-03-22T11:18:16.121Z,17.60
2023-03-22T11:21:48.364Z,15.90
2023-03-22T11:25:34.817Z,16.20
2023-03-22T11:29:16.701Z,15.60
2023-03-22T11:32:41.364Z,15.00
2023-03-22T11:36:26.544Z,17.10
2023-03-22T11:40:02.227Z,17.40
2023-03-22T11:43:42.456Z,18.10
2023-03-22T11:47:14.060Z,17.60
2023-03-22T11:50:53.900Z,17.50
2023-03-22T11:54:35.781Z,17.10
2023-03-22T11:58:06.718Z,17.50
2023-03-22T12:02:13.428Z,17.60
2023-03-22T12:05:30.607Z,19.20
2023-03-22T12:09:35.917Z,19.50
2023-03-22T12:12:44.645Z,16.80
2023-03-22T12:16:23.028Z,17.00
2023-03-22T12:20:06.300Z,17.10
2023-03-22T12:23:32.924Z,15.00
2023-03-22T12:27:17.699Z,17.30
2023-03-22T12:30:56.428Z,16.60
2023-03-22T12:34:33.894Z,17.00
2023-03-22T12:38:11.326Z,16.40
2023-03-22T12:41:43.670Z,16.30
2023-03-22T12:45:25.013Z,15.30
2023-03-22T12:49:15.659Z,15.10
2023-03-22T12:52:56.086Z,17.20
2023-03-22T12:56:40.045Z,16.80
2023-03-22T12:59:51.807Z,14.90
2023-03-22T13:03:51.559Z,15.80
2023-03-22T13:07:29.253Z,16.30
2023-03-22T13:11:03.388Z,17.30
2023-03-22T13:14:51.521Z,15.20
2023-03-22T13:17:56.823Z,15.60
2023-03-22T13:21:33.733Z,17.90
2023-03-22T13:25:12.640Z,15.10
2023-03-22T13:28:58.516Z,15.90
2023-03-22T13:32:32.894Z,14.30
2023-03-22T13:36:25.469Z,13.40
2023-03-22T13:39:41.247Z,16.10
2023-03-22T13:43:29.736Z,14.60
2023-03-22T13:47:01.836Z,16.80
2023-03-22T13:50:35.148Z,13.50
2023-03-22T13:54:16.470Z,13.90
2023-03-22T13:57:59.159Z,16.10
2023-03-22T14:01:35.213Z,16.40
2023-03-22T14:05:18.756Z,16.00
2023-03-22T14:08:47.331Z,18.30
2023-03-22T14:12:32.482Z,15.10
2023-03-22T14:16:08.669Z,16.70
2023-03-22T14:19:37.783Z,15.80
